createdAt,value
2017-11-05T00:00:28.207Z,8.60
2017-11-05T00:02:55.771Z,8.60
2017-11-05T00:05:23.316Z,8.50
2017-11-05T00:07:50.827Z,8.60
2017-11-05T00:10:18.419Z,8.60
2017-11-05T00:12:45.981Z,8.70
2017-11-05T00:15:13.512Z,8.80
2017-11-05T00:17:41.161Z,8.90
2017-11-05T00:20:08.692Z,9.00
2017-11-05T00:22:36.218Z,9.00
2017-11-05T00:25:03.869Z,9.10
2017-11-05T00:27:31.487Z,9.10
2017-11-05T00:29:58.996Z,9.10
2017-11-05T00:32:26.567Z,9.20
2017-11-05T00:34:54.127Z,9.20
2017-11-05T00:37:21.652Z,9.30
2017-11-05T00:39:49.290Z,9.30
2017-11-05T00:42:16.820Z,9.40
2017-11-05T00:44:44.335Z,9.40
2017-11-05T00:47:11.944Z,9.50
2017-11-05T00:49:39.487Z,9.50
2017-11-05T00:52:07.081Z,9.50
2017-11-05T00:54:34.659Z,9.50
2017-11-05T00:57:02.185Z,9.30
2017-11-05T00:59:29.719Z,9.10
2017-11-05T01:01:57.302Z,9.00
2017-11-05T01:04:24.837Z,9.00
2017-11-05T01:06:53.143Z,9.00
2017-11-05T01:09:20.778Z,9.00
2017-11-05T01:11:48.308Z,9.00
2017-11-05T01:14:15.852Z,9.10
2017-11-05T01:16:43.536Z,9.10
2017-11-05T01:19:11.051Z,9.20
2017-11-05T01:21:38.586Z,9.20
2017-11-05T01:24:06.159Z,9.30
2017-11-05T01:26:33.677Z,9.20
2017-11-05T01:29:01.979Z,9.30
2017-11-05T01:31:29.583Z,9.30
2017-11-05T01:33:57.808Z,9.30
2017-11-05T01:36:25.320Z,9.40
2017-11-05T01:38:52.862Z,9.30
2017-11-05T01:41:20.515Z,9.40
2017-11-05T01:43:48.233Z,9.50
2017-11-05T01:46:15.785Z,9.50
2017-11-05T01:48:43.323Z,9.50
2017-11-05T01:51:10.915Z,9.40
2017-11-05T01:53:39.235Z,9.30
2017-11-05T01:56:06.919Z,9.30
2017-11-05T01:58:34.469Z,9.30
2017-11-05T02:01:02.008Z,9.40
2017-11-05T02:03:29.688Z,9.40
2017-11-05T02:05:57.199Z,9.50
2017-11-05T02:08:24.767Z,9.30
2017-11-05T02:10:52.477Z,9.20
2017-11-05T02:13:20.084Z,9.10
2017-11-05T02:15:48.365Z,9.20
2017-11-05T02:18:16.697Z,9.20
2017-11-05T02:20:44.331Z,9.20
2017-11-05T02:23:11.863Z,9.10
2017-11-05T02:25:39.463Z,9.00
2017-11-05T02:28:07.023Z,8.90
2017-11-05T02:30:34.546Z,8.90
2017-11-05T02:33:02.892Z,8.80
2017-11-05T02:35:30.443Z,8.80
2017-11-05T02:37:57.958Z,8.70
2017-11-05T02:40:25.524Z,8.70
2017-11-05T02:42:53.122Z,8.70
2017-11-05T02:45:20.624Z,8.80
2017-11-05T02:47:48.203Z,8.80
2017-11-05T02:50:15.852Z,8.90
2017-11-05T02:52:43.615Z,9.00
2017-11-05T02:55:11.219Z,9.00
2017-11-05T02:57:38.732Z,9.10
2017-11-05T03:00:06.319Z,9.20
2017-11-05T03:02:33.900Z,9.30
2017-11-05T03:05:01.407Z,9.40
2017-11-05T03:07:28.932Z,9.40
2017-11-05T03:09:56.534Z,9.30
2017-11-05T03:12:24.080Z,9.40
2017-11-05T03:14:51.617Z,9.40
2017-11-05T03:17:19.179Z,9.40
2017-11-05T03:19:48.228Z,9.50
2017-11-05T03:22:16.385Z,9.50
2017-11-05T03:24:44.293Z,9.60
2017-11-05T03:27:11.808Z,9.70
2017-11-05T03:29:39.346Z,9.70
2017-11-05T03:32:06.947Z,9.80
2017-11-05T03:34:34.456Z,9.80
2017-11-05T03:37:02.095Z,9.80
2017-11-05T03:39:29.624Z,9.80
2017-11-05T03:41:57.366Z,9.80
2017-11-05T03:44:24.949Z,9.80
2017-11-05T03:46:52.457Z,9.50
2017-11-05T03:49:20.507Z,9.40
2017-11-05T03:51:48.166Z,9.40
2017-11-05T03:54:15.672Z,9.40
2017-11-05T03:56:43.959Z,9.30
2017-11-05T03:59:11.537Z,9.30
2017-11-05T04:01:39.210Z,9.30
2017-11-05T04:04:06.749Z,9.30
2017-11-05T04:06:34.349Z,9.30
2017-11-05T04:09:02.144Z,9.30
2017-11-05T04:11:29.734Z,9.20
2017-11-05T04:13:57.282Z,9.20
2017-11-05T04:16:24.996Z,9.00
2017-11-05T04:18:52.543Z,8.90
2017-11-05T04:21:20.128Z,8.80
2017-11-05T04:23:47.647Z,8.80
2017-11-05T04:26:15.304Z,8.90
2017-11-05T04:28:42.864Z,9.00
2017-11-05T04:31:10.420Z,9.00
2017-11-05T04:33:37.942Z,9.10
2017-11-05T04:36:05.635Z,9.10
2017-11-05T04:38:33.198Z,9.10
2017-11-05T04:41:00.716Z,9.20
2017-11-05T04:43:28.442Z,9.20
2017-11-05T04:45:56.168Z,9.30
2017-11-05T04:48:24.471Z,9.40
2017-11-05T04:50:52.123Z,9.40
2017-11-05T04:53:19.637Z,9.40
2017-11-05T04:55:47.151Z,9.40
2017-11-05T04:58:14.698Z,9.40
2017-11-05T05:00:42.212Z,9.30
2017-11-05T05:03:09.727Z,9.30
2017-11-05T05:05:37.339Z,9.40
2017-11-05T05:08:04.892Z,9.40
2017-11-05T05:10:32.438Z,9.40
2017-11-05T05:13:00.049Z,9.40
2017-11-05T05:15:27.564Z,9.40
2017-11-05T05:17:55.087Z,9.40
2017-11-05T05:20:22.667Z,9.50
2017-11-05T05:22:50.176Z,9.50
2017-11-05T05:25:17.711Z,9.50
2017-11-05T05:27:45.360Z,9.50
2017-11-05T05:30:12.881Z,9.50
2017-11-05T05:32:40.402Z,9.60
2017-11-05T05:35:08.000Z,9.50
2017-11-05T05:37:35.519Z,9.30
2017-11-05T05:40:03.141Z,9.20
2017-11-05T05:42:30.722Z,9.20
2017-11-05T05:44:58.251Z,9.30
2017-11-05T05:47:25.830Z,9.40
2017-11-05T05:49:56.832Z,9.50
2017-11-05T05:52:24.364Z,9.60
2017-11-05T05:54:51.909Z,9.50
2017-11-05T05:57:19.621Z,9.50
2017-11-05T05:59:47.664Z,9.60
2017-11-05T06:02:15.232Z,9.60
2017-11-05T06:04:42.812Z,9.70
2017-11-05T06:07:10.346Z,9.80
2017-11-05T06:09:37.952Z,9.80
2017-11-05T06:12:05.520Z,9.70
2017-11-05T06:14:33.120Z,9.80
2017-11-05T06:17:00.687Z,9.80
2017-11-05T06:19:28.274Z,9.90
2017-11-05T06:21:55.835Z,9.90
2017-11-05T06:24:23.418Z,9.80
2017-11-05T06:26:51.064Z,9.80
2017-11-05T06:29:18.596Z,9.80
2017-11-05T06:31:46.119Z,9.90
2017-11-05T06:34:13.705Z,9.90
2017-11-05T06:36:42.047Z,9.90
2017-11-05T06:39:09.564Z,9.90
2017-11-05T06:41:37.551Z,9.90
2017-11-05T06:44:05.059Z,9.90
2017-11-05T06:46:32.720Z,10.00
2017-11-05T06:49:00.392Z,10.10
2017-11-05T06:51:27.932Z,10.10
2017-11-05T06:53:55.447Z,10.00
2017-11-05T06:56:23.008Z,10.10
2017-11-05T06:58:50.532Z,10.00
2017-11-05T07:01:18.819Z,10.10
2017-11-05T07:03:46.458Z,10.10
2017-11-05T07:06:13.965Z,10.10
2017-11-05T07:08:42.104Z,10.10
2017-11-05T07:11:09.711Z,10.10
2017-11-05T07:13:37.249Z,10.20
2017-11-05T07:16:04.777Z,10.40
2017-11-05T07:18:33.273Z,10.50
2017-11-05T07:21:00.804Z,10.50
2017-11-05T07:23:28.343Z,10.60
2017-11-05T07:25:55.916Z,10.70
2017-11-05T07:28:23.529Z,10.60
2017-11-05T07:30:51.059Z,10.70
2017-11-05T07:33:18.667Z,10.80
2017-11-05T07:35:46.248Z,10.90
2017-11-05T07:38:13.803Z,10.90
2017-11-05T07:40:41.373Z,10.90
2017-11-05T07:43:08.883Z,10.90
2017-11-05T07:45:36.404Z,10.70
2017-11-05T07:48:04.011Z,10.70
2017-11-05T07:50:31.592Z,10.70
2017-11-05T07:52:59.102Z,10.80
2017-11-05T07:55:27.463Z,10.90
2017-11-05T07:57:55.047Z,10.90
2017-11-05T08:00:22.555Z,11.00
2017-11-05T08:02:50.282Z,11.00
2017-11-05T08:05:17.959Z,11.00
2017-11-05T08:07:45.491Z,11.10
2017-11-05T08:10:13.051Z,11.30
2017-11-05T08:12:40.639Z,11.40
2017-11-05T08:15:08.196Z,11.50
2017-11-05T08:17:35.704Z,11.50
2017-11-05T08:20:03.245Z,11.60
2017-11-05T08:22:30.885Z,11.40
2017-11-05T08:24:58.405Z,11.30
2017-11-05T08:27:27.064Z,11.30
2017-11-05T08:29:55.000Z,11.10
2017-11-05T08:32:22.832Z,11.00
2017-11-05T08:34:50.347Z,11.10
2017-11-05T08:37:17.922Z,11.20
2017-11-05T08:39:45.508Z,11.20
2017-11-05T08:42:13.684Z,11.30
2017-11-05T08:44:41.265Z,11.40
2017-11-05T08:47:08.786Z,11.40
2017-11-05T08:49:36.316Z,11.40
2017-11-05T08:52:04.055Z,11.40
2017-11-05T08:54:31.599Z,11.50
2017-11-05T08:56:59.163Z,11.40
2017-11-05T08:59:26.723Z,11.40
2017-11-05T09:01:54.287Z,11.50
2017-11-05T09:04:21.835Z,11.50
2017-11-05T09:06:49.635Z,11.50
2017-11-05T09:09:17.183Z,11.50
2017-11-05T09:11:44.732Z,11.50
2017-11-05T09:14:12.433Z,11.60
2017-11-05T09:16:40.110Z,11.60
2017-11-05T09:19:07.677Z,11.70
2017-11-05T09:21:36.012Z,11.70
2017-11-05T09:24:03.568Z,11.70
2017-11-05T09:26:31.115Z,11.80
2017-11-05T09:28:58.707Z,11.80
2017-11-05T09:31:26.300Z,11.90
2017-11-05T09:33:53.812Z,11.90
2017-11-05T09:36:21.484Z,11.80
2017-11-05T09:38:49.016Z,11.80
2017-11-05T09:41:16.587Z,11.80
2017-11-05T09:43:44.359Z,11.90
2017-11-05T09:46:11.904Z,12.00
2017-11-05T09:48:39.713Z,11.90
2017-11-05T09:51:07.260Z,12.00
2017-11-05T09:53:34.787Z,12.00
2017-11-05T09:56:02.322Z,11.70
2017-11-05T09:58:29.910Z,11.40
2017-11-05T10:00:57.416Z,11.20
2017-11-05T10:03:24.955Z,11.10
2017-11-05T10:05:52.565Z,11.00
2017-11-05T10:08:20.187Z,10.90
2017-11-05T10:10:47.725Z,10.70
2017-11-05T10:13:15.668Z,10.60
2017-11-05T10:15:43.277Z,10.50
2017-11-05T10:18:10.894Z,10.50
2017-11-05T10:20:38.502Z,10.40
2017-11-05T10:23:06.123Z,10.40
2017-11-05T10:25:33.673Z,10.30
2017-11-05T10:28:01.317Z,10.20
2017-11-05T10:30:28.893Z,10.10
2017-11-05T10:32:56.460Z,10.00
2017-11-05T10:35:24.031Z,9.90
2017-11-05T10:37:52.016Z,9.80
2017-11-05T10:40:19.527Z,9.80
2017-11-05T10:42:47.067Z,9.70
2017-11-05T10:45:14.732Z,9.70
2017-11-05T10:47:42.325Z,9.70
2017-11-05T10:50:09.863Z,9.50
2017-11-05T10:52:37.878Z,9.40
2017-11-05T10:55:05.393Z,9.30
2017-11-05T10:57:33.314Z,9.20
2017-11-05T11:00:01.150Z,9.00
2017-11-05T11:02:31.828Z,9.00
2017-11-05T11:04:59.649Z,8.80
2017-11-05T11:07:27.207Z,8.80
2017-11-05T11:09:55.339Z,8.70
2017-11-05T11:12:23.680Z,8.60
2017-11-05T11:14:51.212Z,8.60
2017-11-05T11:17:18.750Z,8.60
2017-11-05T11:19:47.242Z,8.60
2017-11-05T11:22:14.783Z,8.50
2017-11-05T11:24:42.661Z,8.60
2017-11-05T11:27:10.324Z,8.50
2017-11-05T11:29:37.919Z,8.60
2017-11-05T11:32:05.438Z,8.60
2017-11-05T11:34:33.188Z,8.50
2017-11-05T11:37:00.734Z,8.50
2017-11-05T11:39:28.592Z,8.50
2017-11-05T11:42:02.323Z,8.40
2017-11-05T11:44:31.006Z,8.40
2017-11-05T11:46:59.868Z,8.40
2017-11-05T11:49:28.086Z,8.40
2017-11-05T11:51:55.750Z,8.30
2017-11-05T11:54:23.309Z,8.30
2017-11-05T11:56:50.820Z,8.30
2017-11-05T11:59:18.478Z,8.30
2017-11-05T12:01:46.034Z,8.30
2017-11-05T12:04:13.576Z,8.30
2017-11-05T12:06:41.202Z,8.30
2017-11-05T12:09:09.476Z,8.30
2017-11-05T12:11:38.252Z,8.20
2017-11-05T12:14:05.759Z,8.20
2017-11-05T12:16:33.317Z,8.30
2017-11-05T12:19:00.990Z,8.20
2017-11-05T12:21:28.488Z,8.20
2017-11-05T12:23:55.992Z,8.20
2017-11-05T12:26:23.591Z,8.20
2017-11-05T12:28:51.100Z,8.20
2017-11-05T12:31:18.607Z,8.20
2017-11-05T12:33:46.180Z,8.30
2017-11-05T12:36:13.693Z,8.40
2017-11-05T12:38:41.260Z,8.40
2017-11-05T12:41:08.953Z,8.40
2017-11-05T12:56:24.435Z,8.60
2017-11-05T12:58:51.963Z,8.50
2017-11-05T13:01:19.491Z,8.50
2017-11-05T13:03:47.172Z,8.30
2017-11-05T13:06:14.724Z,8.30
2017-11-05T13:08:42.240Z,8.30
2017-11-05T13:11:09.795Z,8.30
2017-11-05T13:13:37.351Z,8.20
2017-11-05T13:16:04.863Z,8.20
2017-11-05T13:18:33.635Z,8.10
2017-11-05T13:21:01.147Z,8.10
2017-11-05T13:23:28.692Z,8.10
2017-11-05T13:25:56.281Z,8.10
2017-11-05T13:28:24.607Z,8.10
2017-11-05T13:30:52.991Z,8.20
2017-11-05T13:33:20.535Z,8.00
2017-11-05T13:35:48.181Z,8.10
2017-11-05T13:38:15.696Z,8.10
2017-11-05T13:40:43.674Z,8.10
2017-11-05T13:43:11.940Z,8.10
2017-11-05T13:45:39.465Z,8.10
2017-11-05T13:48:07.058Z,8.00
2017-11-05T13:50:34.600Z,8.00
2017-11-05T13:53:02.096Z,8.00
2017-11-05T13:55:29.730Z,7.90
2017-11-05T13:57:57.239Z,8.00
2017-11-05T14:00:24.787Z,7.90
2017-11-05T14:02:53.175Z,8.00
2017-11-05T14:05:21.530Z,8.00
2017-11-05T14:07:49.043Z,7.90
2017-11-05T14:10:17.403Z,8.00
2017-11-05T14:12:44.915Z,8.00
2017-11-05T14:15:12.410Z,8.00
2017-11-05T14:17:40.132Z,8.00
2017-11-05T14:20:07.752Z,8.00
2017-11-05T14:22:36.138Z,7.80
2017-11-05T14:25:03.736Z,7.80
2017-11-05T14:27:31.403Z,7.80
2017-11-05T14:29:58.955Z,7.80
2017-11-05T14:32:26.798Z,7.80
2017-11-05T14:34:55.141Z,7.80
2017-11-05T14:37:22.643Z,7.80
2017-11-05T14:39:50.207Z,7.80
2017-11-05T14:42:17.719Z,7.70
2017-11-05T14:44:45.241Z,7.70
2017-11-05T14:47:12.816Z,7.70
2017-11-05T14:49:40.418Z,7.70
2017-11-05T14:52:07.939Z,7.70
2017-11-05T14:54:36.262Z,7.50
2017-11-05T14:57:04.593Z,7.60
2017-11-05T14:59:32.156Z,7.60
2017-11-05T15:02:00.430Z,7.50
2017-11-05T15:04:28.719Z,7.50
2017-11-05T15:06:57.266Z,7.50
2017-11-05T15:09:24.877Z,7.50
2017-11-05T15:11:52.397Z,7.50
2017-11-05T15:14:20.024Z,7.50
2017-11-05T15:16:47.582Z,7.50
2017-11-05T15:19:15.079Z,7.50
2017-11-05T15:21:43.455Z,7.40
2017-11-05T15:24:11.636Z,7.40
2017-11-05T15:26:39.191Z,7.40
2017-11-05T15:29:06.754Z,7.30
2017-11-05T15:31:34.340Z,7.30
2017-11-05T15:34:02.163Z,7.30
2017-11-05T15:36:31.340Z,7.30
2017-11-05T15:38:59.064Z,7.30
2017-11-05T15:41:26.575Z,7.20
2017-11-05T15:43:54.186Z,7.20
2017-11-05T15:46:21.683Z,7.20
2017-11-05T15:48:49.207Z,7.20
2017-11-05T15:51:16.884Z,7.20
2017-11-05T15:53:44.473Z,7.20
2017-11-05T15:56:12.062Z,7.20
2017-11-05T15:58:39.619Z,7.20
2017-11-05T16:01:07.206Z,7.20
2017-11-05T16:03:34.708Z,7.20
2017-11-05T16:06:02.338Z,7.20
2017-11-05T16:08:31.404Z,7.20
2017-11-05T16:10:59.702Z,7.20
2017-11-05T16:13:28.008Z,7.10
2017-11-05T16:15:55.539Z,7.10
2017-11-05T16:18:23.247Z,7.10
2017-11-05T16:20:50.839Z,7.10
2017-11-05T16:23:18.351Z,7.10
2017-11-05T16:25:45.948Z,7.10
2017-11-05T16:28:13.539Z,7.10
2017-11-05T16:30:41.095Z,7.00
2017-11-05T16:33:09.156Z,7.00
2017-11-05T16:35:36.901Z,7.00
2017-11-05T16:38:04.420Z,7.00
2017-11-05T16:40:32.427Z,6.90
2017-11-05T16:43:00.008Z,6.90
2017-11-05T16:45:27.530Z,6.90
2017-11-05T16:47:55.050Z,6.90
2017-11-05T16:50:23.111Z,6.90
2017-11-05T16:52:51.429Z,6.90
2017-11-05T16:55:19.658Z,6.80
2017-11-05T16:57:48.344Z,6.80
2017-11-05T17:00:16.714Z,6.80
2017-11-05T17:02:44.602Z,6.80
2017-11-05T17:05:12.126Z,6.70
2017-11-05T17:07:39.833Z,6.70
2017-11-05T17:10:07.535Z,6.70
2017-11-05T17:12:36.100Z,6.70
2017-11-05T17:15:03.640Z,6.60
2017-11-05T17:17:31.788Z,6.60
2017-11-05T17:19:59.847Z,6.60
2017-11-05T17:22:27.459Z,6.50
2017-11-05T17:24:55.810Z,6.50
2017-11-05T17:27:23.360Z,6.40
2017-11-05T17:29:51.886Z,6.30
2017-11-05T17:32:19.412Z,6.30
2017-11-05T17:34:46.929Z,6.20
2017-11-05T17:37:14.833Z,6.20
2017-11-05T17:39:43.117Z,6.10
2017-11-05T17:42:10.747Z,6.10
2017-11-05T17:44:38.372Z,6.20
2017-11-05T17:47:05.959Z,6.20
2017-11-05T17:49:33.527Z,6.20
2017-11-05T17:52:01.895Z,6.20
2017-11-05T17:54:29.452Z,6.30
2017-11-05T17:56:57.520Z,6.30
2017-11-05T17:59:25.300Z,6.40
2017-11-05T18:01:53.292Z,6.30
2017-11-05T18:04:21.657Z,6.40
2017-11-05T18:06:49.206Z,6.40
2017-11-05T18:09:17.264Z,6.40
2017-11-05T18:11:44.815Z,6.40
2017-11-05T18:14:12.331Z,6.30
2017-11-05T18:16:39.892Z,6.20
2017-11-05T18:19:07.507Z,6.20
2017-11-05T18:21:35.012Z,6.30
2017-11-05T18:24:02.672Z,6.20
2017-11-05T18:26:30.195Z,6.20
2017-11-05T18:28:57.699Z,6.20
2017-11-05T18:31:25.311Z,6.20
2017-11-05T18:33:52.816Z,6.10
2017-11-05T18:36:20.327Z,6.00
2017-11-05T18:38:47.977Z,6.00
2017-11-05T18:41:15.530Z,5.90
2017-11-05T18:43:43.466Z,5.80
2017-11-05T18:46:11.054Z,5.90
2017-11-05T18:48:38.626Z,5.90
2017-11-05T18:51:06.444Z,5.90
2017-11-05T18:53:34.076Z,5.90
2017-11-05T18:56:01.576Z,5.90
2017-11-05T18:58:29.138Z,6.00
2017-11-05T19:00:56.750Z,6.10
2017-11-05T19:03:24.311Z,6.10
2017-11-05T19:05:51.867Z,6.10
2017-11-05T19:08:19.582Z,6.10
2017-11-05T19:10:47.182Z,6.10
2017-11-05T19:13:14.796Z,6.10
2017-11-05T19:15:42.726Z,6.10
2017-11-05T19:18:11.183Z,6.10
2017-11-05T19:20:38.761Z,6.10
2017-11-05T19:23:06.378Z,6.10
2017-11-05T19:25:34.337Z,6.10
2017-11-05T19:28:02.475Z,6.10
2017-11-05T19:30:31.751Z,6.10
2017-11-05T19:32:59.408Z,6.10
2017-11-05T19:35:27.532Z,6.10
2017-11-05T19:37:55.256Z,6.10
2017-11-05T19:40:22.840Z,6.20
2017-11-05T19:42:51.207Z,6.20
2017-11-05T19:45:18.935Z,6.20
2017-11-05T19:47:47.511Z,6.10
2017-11-05T19:50:15.103Z,6.20
2017-11-05T19:52:42.699Z,6.20
2017-11-05T19:55:10.383Z,6.10
2017-11-05T19:57:38.174Z,6.10
2017-11-05T20:00:05.842Z,6.10
2017-11-05T20:02:33.442Z,6.10
2017-11-05T20:05:01.029Z,6.10
2017-11-05T20:07:28.974Z,6.10
2017-11-05T20:09:57.434Z,6.20
2017-11-05T20:12:25.809Z,6.20
2017-11-05T20:14:53.490Z,6.20
2017-11-05T20:17:21.927Z,6.00
2017-11-05T20:19:49.493Z,6.00
2017-11-05T20:22:17.106Z,5.90
2017-11-05T20:24:44.687Z,6.00
2017-11-05T20:27:12.982Z,5.90
2017-11-05T20:29:40.578Z,5.90
2017-11-05T20:32:08.139Z,6.00
2017-11-05T20:34:35.734Z,6.00
2017-11-05T20:37:03.379Z,5.90
2017-11-05T20:39:31.146Z,5.90
2017-11-05T20:41:58.714Z,5.80
2017-11-05T20:44:26.298Z,5.80
2017-11-05T20:46:53.908Z,5.90
2017-11-05T20:49:21.467Z,5.90
2017-11-05T20:51:49.046Z,5.90
2017-11-05T20:54:16.636Z,5.90
2017-11-05T20:56:44.800Z,5.80
2017-11-05T20:59:12.391Z,5.80
2017-11-05T21:01:39.999Z,5.90
2017-11-05T21:04:07.571Z,5.90
2017-11-05T21:06:35.092Z,5.90
2017-11-05T21:09:02.818Z,5.90
2017-11-05T21:11:30.432Z,5.90
2017-11-05T21:13:59.447Z,6.00
2017-11-05T21:16:27.091Z,5.90
2017-11-05T21:18:54.672Z,6.10
2017-11-05T21:21:23.316Z,6.00
2017-11-05T21:23:51.066Z,6.10
2017-11-05T21:26:19.275Z,6.10
2017-11-05T21:28:47.627Z,6.10
2017-11-05T21:31:15.186Z,6.10
2017-11-05T21:33:42.803Z,6.20
2017-11-05T21:36:10.439Z,6.20
2017-11-05T21:38:38.224Z,6.20
2017-11-05T21:41:05.831Z,6.30
2017-11-05T21:43:33.396Z,6.30
2017-11-05T21:46:00.948Z,6.30
2017-11-05T21:48:28.506Z,6.30
2017-11-05T21:50:56.013Z,6.40
2017-11-05T21:53:23.603Z,6.30
2017-11-05T21:55:51.159Z,6.30
2017-11-05T21:58:18.692Z,6.20
2017-11-05T22:00:47.039Z,6.30
2017-11-05T22:03:14.555Z,6.30
2017-11-05T22:05:42.311Z,6.20
2017-11-05T22:08:09.823Z,6.20
2017-11-05T22:10:37.328Z,6.20
2017-11-05T22:13:05.262Z,6.30
2017-11-05T22:15:33.556Z,6.30
2017-11-05T22:18:01.239Z,6.30
2017-11-05T22:20:28.819Z,6.20
2017-11-05T22:22:57.774Z,6.20
2017-11-05T22:25:26.119Z,6.30
2017-11-05T22:27:53.627Z,6.30
2017-11-05T22:30:21.295Z,6.20
2017-11-05T22:32:49.007Z,6.30
2017-11-05T22:35:16.515Z,6.20
2017-11-05T22:37:44.191Z,6.10
2017-11-05T22:40:11.691Z,6.00
2017-11-05T22:42:39.198Z,6.00
2017-11-05T22:45:06.856Z,6.00
2017-11-05T22:47:34.431Z,6.00
2017-11-05T22:50:01.943Z,6.00
2017-11-05T22:52:29.610Z,6.10
2017-11-05T22:54:57.663Z,6.20
2017-11-05T22:57:25.181Z,6.20
2017-11-05T22:59:53.051Z,6.20
2017-11-05T23:02:20.563Z,6.20
2017-11-05T23:04:48.862Z,6.30
2017-11-05T23:07:16.422Z,6.30
2017-11-05T23:09:44.015Z,6.30
2017-11-05T23:12:11.533Z,6.30
2017-11-05T23:14:39.174Z,6.10
2017-11-05T23:17:06.722Z,6.00
2017-11-05T23:19:34.230Z,6.10
2017-11-05T23:22:01.818Z,6.20
2017-11-05T23:24:29.336Z,6.10
2017-11-05T23:26:56.993Z,6.00
2017-11-05T23:29:24.547Z,6.00
2017-11-05T23:31:52.115Z,6.00
2017-11-05T23:34:19.680Z,5.90
2017-11-05T23:36:47.272Z,5.90
2017-11-05T23:39:14.782Z,5.80
2017-11-05T23:41:42.287Z,5.80
2017-11-05T23:44:09.855Z,5.80
2017-11-05T23:46:37.360Z,5.80
2017-11-05T23:49:04.883Z,5.70
2017-11-05T23:51:32.428Z,5.70
2017-11-05T23:53:59.948Z,5.70
2017-11-05T23:56:27.460Z,5.80
2017-11-05T23:58:55.132Z,5.70
